sensor_id;sensor_type;location;lat;lon;timestamp;P1;P2;P0
60816;PMS5003;51921;51.518;-3.188;2023-01-19T00:01:30;11;10;
60816;PMS5003;51921;51.518;-3.188;2023-01-19T00:03:56;9;9;
60816;PMS5003;51921;51.518;-3.188;2023-01-19T00:06:21;10;10;
60816;PMS5003;51921;51.518;-3.188;2023-01-19T00:08:47;10;10;
60816;PMS5003;51921;51.518;-3.188;2023-01-19T00:11:12;10;9;
60816;PMS5003;51921;51.518;-3.188;2023-01-19T00:13:38;9;9;
60816;PMS5003;51921;51.518;-3.188;2023-01-19T00:16:05;14;13;
60816;PMS5003;51921;51.518;-3.188;2023-01-19T00:18:30;8;8;
60816;PMS5003;51921;51.518;-3.188;2023-01-19T00:20:55;7;7;
60816;PMS5003;51921;51.518;-3.188;2023-01-19T00:23:21;6;6;
60816;PMS5003;51921;51.518;-3.188;2023-01-19T00:25:47;8;8;
60816;PMS5003;51921;51.518;-3.188;2023-01-19T00:28:14;6;6;
60816;PMS5003;51921;51.518;-3.188;2023-01-19T00:30:39;8;8;
60816;PMS5003;51921;51.518;-3.188;2023-01-19T00:33:04;5;5;
60816;PMS5003;51921;51.518;-3.188;2023-01-19T00:35:30;9;7;
60816;PMS5003;51921;51.518;-3.188;2023-01-19T00:37:56;10;9;
60816;PMS5003;51921;51.518;-3.188;2023-01-19T00:40:21;7;7;
60816;PMS5003;51921;51.518;-3.188;2023-01-19T00:42:47;6;6;
60816;PMS5003;51921;51.518;-3.188;2023-01-19T00:45:14;4;4;
60816;PMS5003;51921;51.518;-3.188;2023-01-19T00:47:39;6;6;
60816;PMS5003;51921;51.518;-3.188;2023-01-19T00:50:05;4;4;
60816;PMS5003;51921;51.518;-3.188;2023-01-19T00:52:30;5;5;
60816;PMS5003;51921;51.518;-3.188;2023-01-19T00:54:56;5;4;
60816;PMS5003;51921;51.518;-3.188;2023-01-19T00:57:21;6;5;
60816;PMS5003;51921;51.518;-3.188;2023-01-19T00:59:47;5;4;
60816;PMS5003;51921;51.518;-3.188;2023-01-19T01:02:13;4;4;
60816;PMS5003;51921;51.518;-3.188;2023-01-19T01:04:39;4;4;
60816;PMS5003;51921;51.518;-3.188;2023-01-19T01:07:05;4;4;
60816;PMS5003;51921;51.518;-3.188;2023-01-19T01:09:30;3;3;
60816;PMS5003;51921;51.518;-3.188;2023-01-19T01:11:56;3;3;
60816;PMS5003;51921;51.518;-3.188;2023-01-19T01:14:21;4;4;
60816;PMS5003;51921;51.518;-3.188;2023-01-19T01:16:47;2;2;
60816;PMS5003;51921;51.518;-3.188;2023-01-19T01:19:13;4;3;
60816;PMS5003;51921;51.518;-3.188;2023-01-19T01:21:38;2;2;
60816;PMS5003;51921;51.518;-3.188;2023-01-19T01:24:04;4;4;
60816;PMS5003;51921;51.518;-3.188;2023-01-19T01:26:30;4;4;
60816;PMS5003;51921;51.518;-3.188;2023-01-19T01:28:55;3;3;
60816;PMS5003;51921;51.518;-3.188;2023-01-19T01:31:21;2;2;
60816;PMS5003;51921;51.518;-3.188;2023-01-19T01:33:47;5;4;
60816;PMS5003;51921;51.518;-3.188;2023-01-19T01:36:13;4;4;
60816;PMS5003;51921;51.518;-3.188;2023-01-19T01:38:39;4;3;
60816;PMS5003;51921;51.518;-3.188;2023-01-19T01:41:04;4;3;
60816;PMS5003;51921;51.518;-3.188;2023-01-19T01:45:55;3;3;
60816;PMS5003;51921;51.518;-3.188;2023-01-19T01:48:22;4;3;
60816;PMS5003;51921;51.518;-3.188;2023-01-19T01:50:47;3;2;
60816;PMS5003;51921;51.518;-3.188;2023-01-19T01:53:12;2;1;
60816;PMS5003;51921;51.518;-3.188;2023-01-19T01:55:39;2;2;
60816;PMS5003;51921;51.518;-3.188;2023-01-19T01:58:04;2;2;
60816;PMS5003;51921;51.518;-3.188;2023-01-19T02:00:29;2;2;
60816;PMS5003;51921;51.518;-3.188;2023-01-19T02:02:55;5;5;
60816;PMS5003;51921;51.518;-3.188;2023-01-19T02:05:21;2;2;
60816;PMS5003;51921;51.518;-3.188;2023-01-19T02:07:48;3;3;
60816;PMS5003;51921;51.518;-3.188;2023-01-19T02:10:12;3;3;
60816;PMS5003;51921;51.518;-3.188;2023-01-19T02:12:38;3;3;
60816;PMS5003;51921;51.518;-3.188;2023-01-19T02:15:04;2;2;
60816;PMS5003;51921;51.518;-3.188;2023-01-19T02:17:29;3;3;
60816;PMS5003;51921;51.518;-3.188;2023-01-19T02:19:55;2;2;
60816;PMS5003;51921;51.518;-3.188;2023-01-19T02:22:28;3;3;
60816;PMS5003;51921;51.518;-3.188;2023-01-19T02:24:47;4;3;
60816;PMS5003;51921;51.518;-3.188;2023-01-19T02:27:12;3;2;
60816;PMS5003;51921;51.518;-3.188;2023-01-19T02:29:38;3;3;
60816;PMS5003;51921;51.518;-3.188;2023-01-19T02:32:04;3;3;
60816;PMS5003;51921;51.518;-3.188;2023-01-19T02:34:29;4;3;
60816;PMS5003;51921;51.518;-3.188;2023-01-19T02:36:55;3;3;
60816;PMS5003;51921;51.518;-3.188;2023-01-19T02:39:21;4;4;
60816;PMS5003;51921;51.518;-3.188;2023-01-19T02:41:47;4;3;
60816;PMS5003;51921;51.518;-3.188;2023-01-19T02:44:12;6;5;
60816;PMS5003;51921;51.518;-3.188;2023-01-19T02:46:38;5;4;
60816;PMS5003;51921;51.518;-3.188;2023-01-19T02:49:03;5;4;
60816;PMS5003;51921;51.518;-3.188;2023-01-19T02:51:29;5;5;
60816;PMS5003;51921;51.518;-3.188;2023-01-19T02:54:01;4;4;
60816;PMS5003;51921;51.518;-3.188;2023-01-19T02:56:27;4;4;
60816;PMS5003;51921;51.518;-3.188;2023-01-19T02:58:48;4;4;
60816;PMS5003;51921;51.518;-3.188;2023-01-19T03:01:14;4;4;
60816;PMS5003;51921;51.518;-3.188;2023-01-19T03:03:39;5;4;
60816;PMS5003;51921;51.518;-3.188;2023-01-19T03:06:04;6;5;
60816;PMS5003;51921;51.518;-3.188;2023-01-19T03:08:31;4;4;
60816;PMS5003;51921;51.518;-3.188;2023-01-19T03:10:56;5;5;
60816;PMS5003;51921;51.518;-3.188;2023-01-19T03:13:22;6;5;
60816;PMS5003;51921;51.518;-3.188;2023-01-19T03:15:48;5;5;
60816;PMS5003;51921;51.518;-3.188;2023-01-19T03:18:12;4;4;
60816;PMS5003;51921;51.518;-3.188;2023-01-19T03:20:38;4;4;
60816;PMS5003;51921;51.518;-3.188;2023-01-19T03:23:04;6;5;
60816;PMS5003;51921;51.518;-3.188;2023-01-19T03:25:30;5;5;
60816;PMS5003;51921;51.518;-3.188;2023-01-19T03:27:55;3;3;
60816;PMS5003;51921;51.518;-3.188;2023-01-19T03:30:21;5;4;
60816;PMS5003;51921;51.518;-3.188;2023-01-19T03:32:47;4;4;
60816;PMS5003;51921;51.518;-3.188;2023-01-19T03:35:12;5;4;
60816;PMS5003;51921;51.518;-3.188;2023-01-19T03:37:38;3;3;
60816;PMS5003;51921;51.518;-3.188;2023-01-19T03:40:03;4;4;
60816;PMS5003;51921;51.518;-3.188;2023-01-19T03:42:29;4;4;
60816;PMS5003;51921;51.518;-3.188;2023-01-19T03:44:55;4;4;
60816;PMS5003;51921;51.518;-3.188;2023-01-19T03:47:20;4;4;
60816;PMS5003;51921;51.518;-3.188;2023-01-19T03:49:46;3;3;
60816;PMS5003;51921;51.518;-3.188;2023-01-19T03:52:12;4;4;
60816;PMS5003;51921;51.518;-3.188;2023-01-19T03:54:42;5;4;
60816;PMS5003;51921;51.518;-3.188;2023-01-19T03:57:03;5;4;
60816;PMS5003;51921;51.518;-3.188;2023-01-19T03:59:29;5;4;
60816;PMS5003;51921;51.518;-3.188;2023-01-19T04:01:54;5;5;
60816;PMS5003;51921;51.518;-3.188;2023-01-19T04:04:21;3;3;
60816;PMS5003;51921;51.518;-3.188;2023-01-19T04:06:45;5;4;
60816;PMS5003;51921;51.518;-3.188;2023-01-19T04:09:11;5;4;
60816;PMS5003;51921;51.518;-3.188;2023-01-19T04:11:37;5;4;
60816;PMS5003;51921;51.518;-3.188;2023-01-19T04:14:02;5;5;
60816;PMS5003;51921;51.518;-3.188;2023-01-19T04:16:28;4;4;
60816;PMS5003;51921;51.518;-3.188;2023-01-19T04:18:54;5;3;
60816;PMS5003;51921;51.518;-3.188;2023-01-19T04:21:20;4;4;
60816;PMS5003;51921;51.518;-3.188;2023-01-19T04:23:45;4;3;
60816;PMS5003;51921;51.518;-3.188;2023-01-19T04:26:11;4;4;
60816;PMS5003;51921;51.518;-3.188;2023-01-19T04:28:36;5;4;
60816;PMS5003;51921;51.518;-3.188;2023-01-19T04:31:02;6;5;
60816;PMS5003;51921;51.518;-3.188;2023-01-19T04:33:28;5;5;
60816;PMS5003;51921;51.518;-3.188;2023-01-19T04:35:54;4;4;
60816;PMS5003;51921;51.518;-3.188;2023-01-19T04:38:19;3;3;
60816;PMS5003;51921;51.518;-3.188;2023-01-19T04:40:45;3;3;
60816;PMS5003;51921;51.518;-3.188;2023-01-19T04:43:11;6;5;
60816;PMS5003;51921;51.518;-3.188;2023-01-19T04:45:36;5;5;
60816;PMS5003;51921;51.518;-3.188;2023-01-19T04:48:02;6;5;
60816;PMS5003;51921;51.518;-3.188;2023-01-19T04:50:28;4;4;
60816;PMS5003;51921;51.518;-3.188;2023-01-19T04:52:54;4;4;
60816;PMS5003;51921;51.518;-3.188;2023-01-19T04:55:19;4;4;
60816;PMS5003;51921;51.518;-3.188;2023-01-19T04:57:45;5;4;
60816;PMS5003;51921;51.518;-3.188;2023-01-19T05:00:11;5;5;
60816;PMS5003;51921;51.518;-3.188;2023-01-19T05:02:36;5;5;
60816;PMS5003;51921;51.518;-3.188;2023-01-19T05:05:02;6;6;
60816;PMS5003;51921;51.518;-3.188;2023-01-19T05:07:27;6;6;
60816;PMS5003;51921;51.518;-3.188;2023-01-19T05:09:53;9;8;
60816;PMS5003;51921;51.518;-3.188;2023-01-19T05:12:19;7;6;
60816;PMS5003;51921;51.518;-3.188;2023-01-19T05:14:45;7;7;
60816;PMS5003;51921;51.518;-3.188;2023-01-19T05:17:10;7;7;
60816;PMS5003;51921;51.518;-3.188;2023-01-19T05:19:36;8;7;
60816;PMS5003;51921;51.518;-3.188;2023-01-19T05:22:02;6;5;
60816;PMS5003;51921;51.518;-3.188;2023-01-19T05:24:28;6;5;
60816;PMS5003;51921;51.518;-3.188;2023-01-19T05:26:53;5;5;
60816;PMS5003;51921;51.518;-3.188;2023-01-19T05:29:19;7;7;
60816;PMS5003;51921;51.518;-3.188;2023-01-19T05:31:45;8;7;
60816;PMS5003;51921;51.518;-3.188;2023-01-19T05:34:11;6;6;
60816;PMS5003;51921;51.518;-3.188;2023-01-19T05:36:36;6;6;
60816;PMS5003;51921;51.518;-3.188;2023-01-19T05:39:02;8;7;
60816;PMS5003;51921;51.518;-3.188;2023-01-19T05:41:28;7;7;
60816;PMS5003;51921;51.518;-3.188;2023-01-19T05:43:53;6;6;
60816;PMS5003;51921;51.518;-3.188;2023-01-19T05:46:19;6;6;
60816;PMS5003;51921;51.518;-3.188;2023-01-19T05:48:45;7;6;
60816;PMS5003;51921;51.518;-3.188;2023-01-19T05:51:11;6;6;
60816;PMS5003;51921;51.518;-3.188;2023-01-19T05:53:36;7;7;
60816;PMS5003;51921;51.518;-3.188;2023-01-19T05:56:02;7;7;
60816;PMS5003;51921;51.518;-3.188;2023-01-19T05:58:28;10;8;
60816;PMS5003;51921;51.518;-3.188;2023-01-19T06:00:53;13;13;
60816;PMS5003;51921;51.518;-3.188;2023-01-19T06:03:19;9;9;
60816;PMS5003;51921;51.518;-3.188;2023-01-19T06:05:44;10;9;
60816;PMS5003;51921;51.518;-3.188;2023-01-19T06:08:10;10;9;
60816;PMS5003;51921;51.518;-3.188;2023-01-19T06:10:36;7;7;
60816;PMS5003;51921;51.518;-3.188;2023-01-19T06:13:02;9;8;
60816;PMS5003;51921;51.518;-3.188;2023-01-19T06:15:27;12;11;
60816;PMS5003;51921;51.518;-3.188;2023-01-19T06:17:53;10;10;
60816;PMS5003;51921;51.518;-3.188;2023-01-19T06:20:19;8;8;
60816;PMS5003;51921;51.518;-3.188;2023-01-19T06:22:45;10;9;
60816;PMS5003;51921;51.518;-3.188;2023-01-19T06:25:10;10;10;
60816;PMS5003;51921;51.518;-3.188;2023-01-19T06:27:36;9;8;
60816;PMS5003;51921;51.518;-3.188;2023-01-19T06:30:02;12;10;
60816;PMS5003;51921;51.518;-3.188;2023-01-19T06:32:27;9;9;
60816;PMS5003;51921;51.518;-3.188;2023-01-19T06:34:53;13;13;
60816;PMS5003;51921;51.518;-3.188;2023-01-19T06:37:18;8;8;
60816;PMS5003;51921;51.518;-3.188;2023-01-19T06:39:44;7;7;
60816;PMS5003;51921;51.518;-3.188;2023-01-19T06:42:10;8;8;
60816;PMS5003;51921;51.518;-3.188;2023-01-19T06:44:35;10;10;
60816;PMS5003;51921;51.518;-3.188;2023-01-19T06:47:01;12;12;
60816;PMS5003;51921;51.518;-3.188;2023-01-19T06:49:27;10;10;
60816;PMS5003;51921;51.518;-3.188;2023-01-19T06:51:52;8;8;
60816;PMS5003;51921;51.518;-3.188;2023-01-19T06:54:18;10;10;
60816;PMS5003;51921;51.518;-3.188;2023-01-19T06:56:44;11;10;
60816;PMS5003;51921;51.518;-3.188;2023-01-19T06:59:09;10;10;
60816;PMS5003;51921;51.518;-3.188;2023-01-19T07:01:35;10;9;
60816;PMS5003;51921;51.518;-3.188;2023-01-19T07:04:01;10;10;
60816;PMS5003;51921;51.518;-3.188;2023-01-19T07:06:26;9;9;
60816;PMS5003;51921;51.518;-3.188;2023-01-19T07:08:52;12;11;
60816;PMS5003;51921;51.518;-3.188;2023-01-19T07:11:17;9;9;
60816;PMS5003;51921;51.518;-3.188;2023-01-19T07:13:43;12;10;
60816;PMS5003;51921;51.518;-3.188;2023-01-19T07:16:09;13;12;
60816;PMS5003;51921;51.518;-3.188;2023-01-19T07:18:34;15;12;
60816;PMS5003;51921;51.518;-3.188;2023-01-19T07:21:00;12;12;
60816;PMS5003;51921;51.518;-3.188;2023-01-19T07:25:51;12;12;
60816;PMS5003;51921;51.518;-3.188;2023-01-19T07:28:17;15;12;
60816;PMS5003;51921;51.518;-3.188;2023-01-19T07:30:43;14;14;
60816;PMS5003;51921;51.518;-3.188;2023-01-19T07:35:34;16;13;
60816;PMS5003;51921;51.518;-3.188;2023-01-19T07:40:25;25;24;
60816;PMS5003;51921;51.518;-3.188;2023-01-19T07:42:50;21;20;
60816;PMS5003;51921;51.518;-3.188;2023-01-19T07:45:16;19;18;
60816;PMS5003;51921;51.518;-3.188;2023-01-19T07:47:42;18;17;
60816;PMS5003;51921;51.518;-3.188;2023-01-19T07:50:07;17;16;
60816;PMS5003;51921;51.518;-3.188;2023-01-19T07:52:32;23;21;
60816;PMS5003;51921;51.518;-3.188;2023-01-19T07:54:58;22;21;
60816;PMS5003;51921;51.518;-3.188;2023-01-19T07:57:23;23;19;
60816;PMS5003;51921;51.518;-3.188;2023-01-19T07:59:49;17;17;
60816;PMS5003;51921;51.518;-3.188;2023-01-19T08:02:15;16;14;
60816;PMS5003;51921;51.518;-3.188;2023-01-19T08:04:40;20;19;
60816;PMS5003;51921;51.518;-3.188;2023-01-19T08:07:06;19;18;
60816;PMS5003;51921;51.518;-3.188;2023-01-19T08:09:32;18;17;
60816;PMS5003;51921;51.518;-3.188;2023-01-19T08:11:57;18;17;
60816;PMS5003;51921;51.518;-3.188;2023-01-19T08:14:23;21;17;
60816;PMS5003;51921;51.518;-3.188;2023-01-19T08:16:48;18;17;
60816;PMS5003;51921;51.518;-3.188;2023-01-19T08:19:14;18;17;
60816;PMS5003;51921;51.518;-3.188;2023-01-19T08:21:39;23;18;
60816;PMS5003;51921;51.518;-3.188;2023-01-19T08:24:05;19;18;
60816;PMS5003;51921;51.518;-3.188;2023-01-19T08:26:31;16;15;
60816;PMS5003;51921;51.518;-3.188;2023-01-19T08:28:56;15;14;
60816;PMS5003;51921;51.518;-3.188;2023-01-19T08:31:22;21;21;
60816;PMS5003;51921;51.518;-3.188;2023-01-19T08:33:47;15;14;
60816;PMS5003;51921;51.518;-3.188;2023-01-19T08:36:12;16;14;
60816;PMS5003;51921;51.518;-3.188;2023-01-19T08:38:38;16;16;
60816;PMS5003;51921;51.518;-3.188;2023-01-19T08:41:05;17;17;
60816;PMS5003;51921;51.518;-3.188;2023-01-19T08:43:29;19;18;
60816;PMS5003;51921;51.518;-3.188;2023-01-19T08:45:54;21;19;
60816;PMS5003;51921;51.518;-3.188;2023-01-19T08:48:20;18;16;
60816;PMS5003;51921;51.518;-3.188;2023-01-19T08:50:45;19;18;
60816;PMS5003;51921;51.518;-3.188;2023-01-19T08:53:11;18;17;
60816;PMS5003;51921;51.518;-3.188;2023-01-19T08:55:37;19;18;
60816;PMS5003;51921;51.518;-3.188;2023-01-19T08:58:02;21;20;
60816;PMS5003;51921;51.518;-3.188;2023-01-19T09:00:29;23;21;
60816;PMS5003;51921;51.518;-3.188;2023-01-19T09:02:53;23;22;
60816;PMS5003;51921;51.518;-3.188;2023-01-19T09:05:19;27;25;
60816;PMS5003;51921;51.518;-3.188;2023-01-19T09:07:44;30;28;
60816;PMS5003;51921;51.518;-3.188;2023-01-19T09:10:10;32;31;
60816;PMS5003;51921;51.518;-3.188;2023-01-19T09:12:35;35;33;
60816;PMS5003;51921;51.518;-3.188;2023-01-19T09:15:00;27;27;
60816;PMS5003;51921;51.518;-3.188;2023-01-19T09:17:26;26;24;
60816;PMS5003;51921;51.518;-3.188;2023-01-19T09:19:51;31;29;
60816;PMS5003;51921;51.518;-3.188;2023-01-19T09:22:17;33;32;
60816;PMS5003;51921;51.518;-3.188;2023-01-19T09:24:42;29;28;
60816;PMS5003;51921;51.518;-3.188;2023-01-19T09:27:08;28;26;
60816;PMS5003;51921;51.518;-3.188;2023-01-19T09:29:33;28;27;
60816;PMS5003;51921;51.518;-3.188;2023-01-19T09:31:59;31;29;
60816;PMS5003;51921;51.518;-3.188;2023-01-19T09:34:24;32;31;
60816;PMS5003;51921;51.518;-3.188;2023-01-19T09:36:50;30;30;
60816;PMS5003;51921;51.518;-3.188;2023-01-19T09:39:16;34;32;
60816;PMS5003;51921;51.518;-3.188;2023-01-19T09:41:41;33;32;
60816;PMS5003;51921;51.518;-3.188;2023-01-19T09:44:07;32;31;
60816;PMS5003;51921;51.518;-3.188;2023-01-19T09:46:33;33;31;
60816;PMS5003;51921;51.518;-3.188;2023-01-19T09:48:58;28;27;
60816;PMS5003;51921;51.518;-3.188;2023-01-19T09:51:24;29;26;
60816;PMS5003;51921;51.518;-3.188;2023-01-19T09:53:52;30;29;
60816;PMS5003;51921;51.518;-3.188;2023-01-19T09:56:14;31;29;
60816;PMS5003;51921;51.518;-3.188;2023-01-19T09:58:39;33;29;
60816;PMS5003;51921;51.518;-3.188;2023-01-19T10:01:08;27;26;
60816;PMS5003;51921;51.518;-3.188;2023-01-19T10:03:31;34;33;
60816;PMS5003;51921;51.518;-3.188;2023-01-19T10:05:57;40;35;
60816;PMS5003;51921;51.518;-3.188;2023-01-19T10:08:23;35;33;
60816;PMS5003;51921;51.518;-3.188;2023-01-19T10:10:48;33;31;
60816;PMS5003;51921;51.518;-3.188;2023-01-19T10:13:20;32;31;
60816;PMS5003;51921;51.518;-3.188;2023-01-19T10:15:42;37;34;
60816;PMS5003;51921;51.518;-3.188;2023-01-19T10:18:07;31;30;
60816;PMS5003;51921;51.518;-3.188;2023-01-19T10:20:29;29;28;
60816;PMS5003;51921;51.518;-3.188;2023-01-19T10:22:54;29;28;
60816;PMS5003;51921;51.518;-3.188;2023-01-19T10:25:20;31;31;
60816;PMS5003;51921;51.518;-3.188;2023-01-19T10:27:44;29;28;
60816;PMS5003;51921;51.518;-3.188;2023-01-19T10:30:13;32;28;
60816;PMS5003;51921;51.518;-3.188;2023-01-19T10:32:35;28;25;
60816;PMS5003;51921;51.518;-3.188;2023-01-19T10:35:00;28;26;
60816;PMS5003;51921;51.518;-3.188;2023-01-19T10:37:27;20;20;
60816;PMS5003;51921;51.518;-3.188;2023-01-19T10:39:51;24;22;
60816;PMS5003;51921;51.518;-3.188;2023-01-19T10:42:17;23;21;
60816;PMS5003;51921;51.518;-3.188;2023-01-19T10:44:42;25;20;
60816;PMS5003;51921;51.518;-3.188;2023-01-19T10:47:12;25;23;
60816;PMS5003;51921;51.518;-3.188;2023-01-19T10:49:35;23;21;
60816;PMS5003;51921;51.518;-3.188;2023-01-19T10:51:58;16;15;
60816;PMS5003;51921;51.518;-3.188;2023-01-19T10:54:24;19;17;
60816;PMS5003;51921;51.518;-3.188;2023-01-19T10:56:50;16;15;
60816;PMS5003;51921;51.518;-3.188;2023-01-19T11:01:40;13;10;
60816;PMS5003;51921;51.518;-3.188;2023-01-19T11:06:32;10;9;
60816;PMS5003;51921;51.518;-3.188;2023-01-19T11:11:22;7;6;
60816;PMS5003;51921;51.518;-3.188;2023-01-19T11:16:15;8;8;
60816;PMS5003;51921;51.518;-3.188;2023-01-19T11:18:39;9;8;
60816;PMS5003;51921;51.518;-3.188;2023-01-19T11:21:05;11;10;
60816;PMS5003;51921;51.518;-3.188;2023-01-19T11:23:31;11;10;
60816;PMS5003;51921;51.518;-3.188;2023-01-19T11:25:58;10;9;
60816;PMS5003;51921;51.518;-3.188;2023-01-19T11:28:23;13;13;
60816;PMS5003;51921;51.518;-3.188;2023-01-19T11:30:54;10;10;
60816;PMS5003;51921;51.518;-3.188;2023-01-19T11:35:39;7;6;
60816;PMS5003;51921;51.518;-3.188;2023-01-19T11:38:04;4;4;
60816;PMS5003;51921;51.518;-3.188;2023-01-19T11:40:29;4;4;
60816;PMS5003;51921;51.518;-3.188;2023-01-19T11:42:55;3;3;
60816;PMS5003;51921;51.518;-3.188;2023-01-19T11:45:20;3;3;
60816;PMS5003;51921;51.518;-3.188;2023-01-19T11:47:47;3;3;
60816;PMS5003;51921;51.518;-3.188;2023-01-19T11:50:13;3;3;
60816;PMS5003;51921;51.518;-3.188;2023-01-19T11:52:39;2;2;
60816;PMS5003;51921;51.518;-3.188;2023-01-19T11:55:05;3;3;
60816;PMS5003;51921;51.518;-3.188;2023-01-19T11:57:28;2;2;
60816;PMS5003;51921;51.518;-3.188;2023-01-19T11:59:54;3;3;
60816;PMS5003;51921;51.518;-3.188;2023-01-19T12:02:22;3;3;
60816;PMS5003;51921;51.518;-3.188;2023-01-19T12:04:46;2;2;
60816;PMS5003;51921;51.518;-3.188;2023-01-19T12:07:11;1;1;
60816;PMS5003;51921;51.518;-3.188;2023-01-19T12:09:38;3;2;
60816;PMS5003;51921;51.518;-3.188;2023-01-19T12:12:03;2;2;
60816;PMS5003;51921;51.518;-3.188;2023-01-19T12:14:30;2;2;
60816;PMS5003;51921;51.518;-3.188;2023-01-19T12:16:55;4;3;
60816;PMS5003;51921;51.518;-3.188;2023-01-19T12:21:45;1;1;
60816;PMS5003;51921;51.518;-3.188;2023-01-19T12:24:11;2;2;
60816;PMS5003;51921;51.518;-3.188;2023-01-19T12:26:37;2;2;
60816;PMS5003;51921;51.518;-3.188;2023-01-19T12:29:05;2;2;
60816;PMS5003;51921;51.518;-3.188;2023-01-19T12:31:28;2;2;
60816;PMS5003;51921;51.518;-3.188;2023-01-19T12:33:53;3;2;
60816;PMS5003;51921;51.518;-3.188;2023-01-19T12:38:45;4;4;
60816;PMS5003;51921;51.518;-3.188;2023-01-19T12:41:19;2;2;
60816;PMS5003;51921;51.518;-3.188;2023-01-19T12:43:36;2;1;
60816;PMS5003;51921;51.518;-3.188;2023-01-19T12:46:03;1;1;
60816;PMS5003;51921;51.518;-3.188;2023-01-19T12:48:28;3;2;
60816;PMS5003;51921;51.518;-3.188;2023-01-19T12:50:53;4;3;
60816;PMS5003;51921;51.518;-3.188;2023-01-19T12:53:19;3;3;
60816;PMS5003;51921;51.518;-3.188;2023-01-19T12:55:45;2;2;
60816;PMS5003;51921;51.518;-3.188;2023-01-19T12:58:12;2;2;
60816;PMS5003;51921;51.518;-3.188;2023-01-19T13:00:36;3;2;
60816;PMS5003;51921;51.518;-3.188;2023-01-19T13:03:03;2;2;
60816;PMS5003;51921;51.518;-3.188;2023-01-19T13:17:35;5;5;
60816;PMS5003;51921;51.518;-3.188;2023-01-19T13:27:17;5;3;
60816;PMS5003;51921;51.518;-3.188;2023-01-19T13:29:43;3;3;
60816;PMS5003;51921;51.518;-3.188;2023-01-19T13:32:11;5;4;
60816;PMS5003;51921;51.518;-3.188;2023-01-19T13:34:35;4;4;
60816;PMS5003;51921;51.518;-3.188;2023-01-19T13:37:00;3;3;
60816;PMS5003;51921;51.518;-3.188;2023-01-19T13:39:33;1;1;
60816;PMS5003;51921;51.518;-3.188;2023-01-19T13:41:51;3;2;
60816;PMS5003;51921;51.518;-3.188;2023-01-19T13:44:17;3;3;
60816;PMS5003;51921;51.518;-3.188;2023-01-19T13:46:42;3;3;
60816;PMS5003;51921;51.518;-3.188;2023-01-19T13:49:12;2;2;
60816;PMS5003;51921;51.518;-3.188;2023-01-19T13:51:34;3;3;
60816;PMS5003;51921;51.518;-3.188;2023-01-19T13:53:59;3;2;
60816;PMS5003;51921;51.518;-3.188;2023-01-19T13:56:25;2;2;
60816;PMS5003;51921;51.518;-3.188;2023-01-19T13:58:57;2;2;
60816;PMS5003;51921;51.518;-3.188;2023-01-19T14:01:19;3;2;
60816;PMS5003;51921;51.518;-3.188;2023-01-19T14:03:42;3;3;
60816;PMS5003;51921;51.518;-3.188;2023-01-19T14:10:59;4;3;
60816;PMS5003;51921;51.518;-3.188;2023-01-19T14:13:25;2;2;
60816;PMS5003;51921;51.518;-3.188;2023-01-19T14:15:50;4;3;
60816;PMS5003;51921;51.518;-3.188;2023-01-19T14:25:33;3;2;
60816;PMS5003;51921;51.518;-3.188;2023-01-19T14:30:24;3;3;
60816;PMS5003;51921;51.518;-3.188;2023-01-19T14:32:49;2;2;
60816;PMS5003;51921;51.518;-3.188;2023-01-19T14:37:45;2;1;
60816;PMS5003;51921;51.518;-3.188;2023-01-19T14:42:33;3;2;
60816;PMS5003;51921;51.518;-3.188;2023-01-19T14:44:58;1;1;
60816;PMS5003;51921;51.518;-3.188;2023-01-19T14:47:26;1;1;
60816;PMS5003;51921;51.518;-3.188;2023-01-19T14:49:49;0;0;
60816;PMS5003;51921;51.518;-3.188;2023-01-19T14:52:17;1;1;
60816;PMS5003;51921;51.518;-3.188;2023-01-19T14:54:41;1;0;
60816;PMS5003;51921;51.518;-3.188;2023-01-19T14:57:08;1;1;
60816;PMS5003;51921;51.518;-3.188;2023-01-19T14:59:31;3;2;
60816;PMS5003;51921;51.518;-3.188;2023-01-19T15:01:57;4;3;
60816;PMS5003;51921;51.518;-3.188;2023-01-19T15:04:22;2;0;
60816;PMS5003;51921;51.518;-3.188;2023-01-19T15:06:48;1;1;
60816;PMS5003;51921;51.518;-3.188;2023-01-19T15:09:13;2;1;
60816;PMS5003;51921;51.518;-3.188;2023-01-19T15:11:39;2;2;
60816;PMS5003;51921;51.518;-3.188;2023-01-19T15:14:05;1;1;
60816;PMS5003;51921;51.518;-3.188;2023-01-19T15:16:31;1;1;
60816;PMS5003;51921;51.518;-3.188;2023-01-19T15:18:56;2;2;
60816;PMS5003;51921;51.518;-3.188;2023-01-19T15:21:21;2;2;
60816;PMS5003;51921;51.518;-3.188;2023-01-19T15:23:47;2;2;
60816;PMS5003;51921;51.518;-3.188;2023-01-19T15:26:14;4;4;
60816;PMS5003;51921;51.518;-3.188;2023-01-19T15:28:38;4;3;
60816;PMS5003;51921;51.518;-3.188;2023-01-19T15:31:04;3;2;
60816;PMS5003;51921;51.518;-3.188;2023-01-19T15:33:30;3;3;
60816;PMS5003;51921;51.518;-3.188;2023-01-19T15:35:55;4;4;
60816;PMS5003;51921;51.518;-3.188;2023-01-19T15:38:21;5;5;
60816;PMS5003;51921;51.518;-3.188;2023-01-19T15:40:46;9;8;
60816;PMS5003;51921;51.518;-3.188;2023-01-19T15:43:12;3;2;
60816;PMS5003;51921;51.518;-3.188;2023-01-19T15:45:38;3;3;
60816;PMS5003;51921;51.518;-3.188;2023-01-19T15:48:04;0;0;
60816;PMS5003;51921;51.518;-3.188;2023-01-19T15:50:29;1;1;
60816;PMS5003;51921;51.518;-3.188;2023-01-19T15:52:54;2;2;
60816;PMS5003;51921;51.518;-3.188;2023-01-19T15:55:20;2;2;
60816;PMS5003;51921;51.518;-3.188;2023-01-19T15:57:46;2;2;
60816;PMS5003;51921;51.518;-3.188;2023-01-19T16:00:12;2;2;
60816;PMS5003;51921;51.518;-3.188;2023-01-19T16:02:37;1;1;
60816;PMS5003;51921;51.518;-3.188;2023-01-19T16:05:03;2;2;
60816;PMS5003;51921;51.518;-3.188;2023-01-19T16:07:28;5;2;
60816;PMS5003;51921;51.518;-3.188;2023-01-19T16:09:54;5;3;
60816;PMS5003;51921;51.518;-3.188;2023-01-19T16:12:20;3;3;
60816;PMS5003;51921;51.518;-3.188;2023-01-19T16:14:45;2;2;
60816;PMS5003;51921;51.518;-3.188;2023-01-19T16:17:11;2;1;
60816;PMS5003;51921;51.518;-3.188;2023-01-19T16:19:37;1;1;
60816;PMS5003;51921;51.518;-3.188;2023-01-19T16:22:02;2;2;
60816;PMS5003;51921;51.518;-3.188;2023-01-19T16:24:28;5;3;
60816;PMS5003;51921;51.518;-3.188;2023-01-19T16:26:53;3;3;
60816;PMS5003;51921;51.518;-3.188;2023-01-19T16:29:19;3;2;
60816;PMS5003;51921;51.518;-3.188;2023-01-19T16:31:45;4;3;
60816;PMS5003;51921;51.518;-3.188;2023-01-19T16:34:10;4;4;
60816;PMS5003;51921;51.518;-3.188;2023-01-19T16:36:37;8;7;
60816;PMS5003;51921;51.518;-3.188;2023-01-19T16:39:03;5;4;
60816;PMS5003;51921;51.518;-3.188;2023-01-19T16:41:27;8;7;
60816;PMS5003;51921;51.518;-3.188;2023-01-19T16:43:53;7;6;
60816;PMS5003;51921;51.518;-3.188;2023-01-19T16:46:20;9;6;
60816;PMS5003;51921;51.518;-3.188;2023-01-19T16:48:44;9;9;
60816;PMS5003;51921;51.518;-3.188;2023-01-19T16:51:10;6;5;
60816;PMS5003;51921;51.518;-3.188;2023-01-19T16:53:35;10;9;
60816;PMS5003;51921;51.518;-3.188;2023-01-19T16:56:02;56;50;
60816;PMS5003;51921;51.518;-3.188;2023-01-19T16:58:26;64;59;
60816;PMS5003;51921;51.518;-3.188;2023-01-19T17:00:51;21;18;
60816;PMS5003;51921;51.518;-3.188;2023-01-19T17:03:17;20;18;
60816;PMS5003;51921;51.518;-3.188;2023-01-19T17:05:47;15;15;
60816;PMS5003;51921;51.518;-3.188;2023-01-19T17:08:08;9;9;
60816;PMS5003;51921;51.518;-3.188;2023-01-19T17:10:34;23;21;
60816;PMS5003;51921;51.518;-3.188;2023-01-19T17:12:59;28;25;
60816;PMS5003;51921;51.518;-3.188;2023-01-19T17:15:25;20;20;
60816;PMS5003;51921;51.518;-3.188;2023-01-19T17:17:50;16;12;